sensor_id;sensor_type;location;lat;lon;timestamp;pressure;altitude;pressure_sealevel;temperature;humidity
26657;BME280;14279;50.010;8.260;2023-04-09T00:00:37;101310.69;;;10.36;59.97
26657;BME280;14279;50.010;8.260;2023-04-09T00:03:03;101315.56;;;10.49;59.65
26657;BME280;14279;50.010;8.260;2023-04-09T00:05:28;101308.47;;;10.54;59.89
26657;BME280;14279;50.010;8.260;2023-04-09T00:07:53;101313.78;;;10.49;59.76
26657;BME280;14279;50.010;8.260;2023-04-09T00:10:19;101319.88;;;10.50;60.33
26657;BME280;14279;50.010;8.260;2023-04-09T00:12:44;101308.41;;;10.56;60.17
26657;BME280;14279;50.010;8.260;2023-04-09T00:15:09;101302.13;;;10.63;59.69
26657;BME280;14279;50.010;8.260;2023-04-09T00:17:35;101305.56;;;10.63;59.62
26657;BME280;14279;50.010;8.260;2023-04-09T00:20:00;101305.66;;;10.60;59.72
26657;BME280;14279;50.010;8.260;2023-04-09T00:22:25;101306.34;;;10.65;59.52
26657;BME280;14279;50.010;8.260;2023-04-09T00:24:51;101306.44;;;10.64;60.20
26657;BME280;14279;50.010;8.260;2023-04-09T00:27:16;101307.31;;;10.63;59.87
26657;BME280;14279;50.010;8.260;2023-04-09T00:29:41;101303.75;;;10.65;60.07
26657;BME280;14279;50.010;8.260;2023-04-09T00:32:06;101298.09;;;10.52;59.67
26657;BME280;14279;50.010;8.260;2023-04-09T00:34:32;101302.63;;;10.46;59.58
26657;BME280;14279;50.010;8.260;2023-04-09T00:36:57;101296.09;;;10.31;59.98
26657;BME280;14279;50.010;8.260;2023-04-09T00:39:22;101297.72;;;10.35;59.97
26657;BME280;14279;50.010;8.260;2023-04-09T00:41:48;101296.34;;;10.23;60.14
26657;BME280;14279;50.010;8.260;2023-04-09T00:44:13;101298.94;;;10.23;60.39
26657;BME280;14279;50.010;8.260;2023-04-09T00:46:38;101297.69;;;10.06;60.69
26657;BME280;14279;50.010;8.260;2023-04-09T00:49:04;101294.69;;;10.20;60.38
26657;BME280;14279;50.010;8.260;2023-04-09T00:51:29;101293.06;;;10.16;60.69
26657;BME280;14279;50.010;8.260;2023-04-09T00:53:55;101296.25;;;10.26;60.34
26657;BME280;14279;50.010;8.260;2023-04-09T00:56:22;101289.44;;;10.22;60.58
26657;BME280;14279;50.010;8.260;2023-04-09T00:58:48;101297.81;;;10.32;60.20
26657;BME280;14279;50.010;8.260;2023-04-09T01:01:13;101290.47;;;10.16;60.51
26657;BME280;14279;50.010;8.260;2023-04-09T01:03:38;101294.47;;;10.27;60.35
26657;BME280;14279;50.010;8.260;2023-04-09T01:06:33;101294.56;;;10.23;60.68
26657;BME280;14279;50.010;8.260;2023-04-09T01:08:59;101297.38;;;10.17;61.36
26657;BME280;14279;50.010;8.260;2023-04-09T01:11:39;101293.31;;;10.08;61.25
26657;BME280;14279;50.010;8.260;2023-04-09T01:14:20;101294.63;;;10.22;61.25
26657;BME280;14279;50.010;8.260;2023-04-09T01:16:51;101298.03;;;10.24;60.98
26657;BME280;14279;50.010;8.260;2023-04-09T01:19:33;101290.16;;;10.27;60.91
26657;BME280;14279;50.010;8.260;2023-04-09T01:22:07;101293.59;;;10.28;60.87
26657;BME280;14279;50.010;8.260;2023-04-09T01:24:50;101290.31;;;9.91;62.04
26657;BME280;14279;50.010;8.260;2023-04-09T01:27:20;101288.28;;;10.02;61.42
26657;BME280;14279;50.010;8.260;2023-04-09T01:29:49;101289.47;;;9.90;61.40
26657;BME280;14279;50.010;8.260;2023-04-09T01:32:17;101287.63;;;9.94;62.11
26657;BME280;14279;50.010;8.260;2023-04-09T01:34:45;101291.47;;;9.81;62.18
26657;BME280;14279;50.010;8.260;2023-04-09T01:37:12;101291.78;;;9.70;62.66
26657;BME280;14279;50.010;8.260;2023-04-09T01:39:39;101296.19;;;9.66;62.63
26657;BME280;14279;50.010;8.260;2023-04-09T01:42:05;101286.16;;;9.52;63.01
26657;BME280;14279;50.010;8.260;2023-04-09T01:44:37;101287.94;;;9.52;63.21
26657;BME280;14279;50.010;8.260;2023-04-09T01:47:03;101288.41;;;9.66;62.54
26657;BME280;14279;50.010;8.260;2023-04-09T01:49:29;101287.84;;;9.55;62.63
26657;BME280;14279;50.010;8.260;2023-04-09T01:51:55;101291.25;;;9.57;62.94
26657;BME280;14279;50.010;8.260;2023-04-09T01:57:30;101296.63;;;9.51;63.01
26657;BME280;14279;50.010;8.260;2023-04-09T01:59:55;101289.88;;;9.43;62.88
26657;BME280;14279;50.010;8.260;2023-04-09T02:02:27;101291.78;;;9.37;62.87
26657;BME280;14279;50.010;8.260;2023-04-09T02:04:58;101291.72;;;9.40;63.08
26657;BME280;14279;50.010;8.260;2023-04-09T02:07:31;101301.66;;;9.24;63.38
26657;BME280;14279;50.010;8.260;2023-04-09T02:09:59;101302.78;;;9.13;63.68
26657;BME280;14279;50.010;8.260;2023-04-09T02:12:26;101302.00;;;9.10;63.68
26657;BME280;14279;50.010;8.260;2023-04-09T02:14:52;101300.25;;;9.10;64.01
26657;BME280;14279;50.010;8.260;2023-04-09T02:17:18;101300.59;;;8.96;64.06
26657;BME280;14279;50.010;8.260;2023-04-09T02:19:45;101303.41;;;8.87;64.57
26657;BME280;14279;50.010;8.260;2023-04-09T02:22:11;101299.84;;;8.91;64.60
26657;BME280;14279;50.010;8.260;2023-04-09T02:24:37;101301.50;;;8.95;64.13
26657;BME280;14279;50.010;8.260;2023-04-09T02:27:02;101300.78;;;8.89;64.02
26657;BME280;14279;50.010;8.260;2023-04-09T02:29:29;101300.88;;;8.84;64.35
26657;BME280;14279;50.010;8.260;2023-04-09T02:31:55;101299.34;;;8.75;64.12
26657;BME280;14279;50.010;8.260;2023-04-09T02:34:21;101306.56;;;8.62;64.71
26657;BME280;14279;50.010;8.260;2023-04-09T02:36:47;101301.19;;;8.71;64.33
26657;BME280;14279;50.010;8.260;2023-04-09T02:39:12;101301.44;;;8.59;64.68
26657;BME280;14279;50.010;8.260;2023-04-09T02:41:38;101302.25;;;8.63;64.62
26657;BME280;14279;50.010;8.260;2023-04-09T02:44:03;101304.09;;;8.56;64.93
26657;BME280;14279;50.010;8.260;2023-04-09T02:46:28;101300.50;;;8.63;64.65
26657;BME280;14279;50.010;8.260;2023-04-09T02:48:54;101299.75;;;8.58;64.73
26657;BME280;14279;50.010;8.260;2023-04-09T02:51:19;101299.53;;;8.67;64.29
26657;BME280;14279;50.010;8.260;2023-04-09T02:53:45;101301.19;;;8.70;64.51
26657;BME280;14279;50.010;8.260;2023-04-09T02:56:10;101300.44;;;8.66;64.50
26657;BME280;14279;50.010;8.260;2023-04-09T02:58:35;101295.94;;;8.73;64.31
26657;BME280;14279;50.010;8.260;2023-04-09T03:01:00;101301.38;;;8.64;64.39
26657;BME280;14279;50.010;8.260;2023-04-09T03:03:26;101302.41;;;8.55;64.53
26657;BME280;14279;50.010;8.260;2023-04-09T03:05:51;101299.47;;;8.70;64.63
26657;BME280;14279;50.010;8.260;2023-04-09T03:08:16;101295.47;;;8.55;64.87
26657;BME280;14279;50.010;8.260;2023-04-09T03:10:41;101288.47;;;8.59;64.80
26657;BME280;14279;50.010;8.260;2023-04-09T03:13:07;101293.00;;;8.51;64.65
26657;BME280;14279;50.010;8.260;2023-04-09T03:15:32;101285.94;;;8.56;64.82
26657;BME280;14279;50.010;8.260;2023-04-09T03:17:57;101285.94;;;8.56;65.06
26657;BME280;14279;50.010;8.260;2023-04-09T03:20:22;101278.16;;;8.56;64.36
26657;BME280;14279;50.010;8.260;2023-04-09T03:22:48;101286.69;;;8.63;64.55
26657;BME280;14279;50.010;8.260;2023-04-09T03:25:13;101280.38;;;8.73;64.87
26657;BME280;14279;50.010;8.260;2023-04-09T03:27:38;101287.25;;;8.76;64.95
26657;BME280;14279;50.010;8.260;2023-04-09T03:30:04;101275.16;;;8.73;64.50
26657;BME280;14279;50.010;8.260;2023-04-09T03:32:29;101274.34;;;8.72;64.97
26657;BME280;14279;50.010;8.260;2023-04-09T03:34:54;101281.31;;;8.70;65.06
26657;BME280;14279;50.010;8.260;2023-04-09T03:37:20;101274.41;;;8.69;64.71
26657;BME280;14279;50.010;8.260;2023-04-09T03:39:45;101277.91;;;8.67;64.69
26657;BME280;14279;50.010;8.260;2023-04-09T03:42:10;101277.88;;;8.68;65.28
26657;BME280;14279;50.010;8.260;2023-04-09T03:44:35;101268.47;;;8.64;64.79
26657;BME280;14279;50.010;8.260;2023-04-09T03:47:00;101270.06;;;8.70;65.16
26657;BME280;14279;50.010;8.260;2023-04-09T03:49:26;101272.72;;;8.67;65.34
26657;BME280;14279;50.010;8.260;2023-04-09T03:51:51;101270.22;;;8.62;65.72
26657;BME280;14279;50.010;8.260;2023-04-09T03:54:16;101273.84;;;8.55;65.66
26657;BME280;14279;50.010;8.260;2023-04-09T03:56:41;101268.59;;;8.58;65.17
26657;BME280;14279;50.010;8.260;2023-04-09T03:59:07;101272.41;;;8.41;64.87
26657;BME280;14279;50.010;8.260;2023-04-09T04:01:32;101272.19;;;8.54;65.01
26657;BME280;14279;50.010;8.260;2023-04-09T04:03:58;101272.34;;;8.45;65.44
26657;BME280;14279;50.010;8.260;2023-04-09T04:06:23;101277.47;;;8.48;64.70
26657;BME280;14279;50.010;8.260;2023-04-09T04:08:49;101273.22;;;8.43;65.34
26657;BME280;14279;50.010;8.260;2023-04-09T04:11:15;101270.81;;;8.36;65.33
26657;BME280;14279;50.010;8.260;2023-04-09T04:13:40;101263.69;;;8.44;65.76
26657;BME280;14279;50.010;8.260;2023-04-09T04:16:07;101268.81;;;8.47;65.87
26657;BME280;14279;50.010;8.260;2023-04-09T04:18:33;101269.69;;;8.46;66.06
26657;BME280;14279;50.010;8.260;2023-04-09T04:20:58;101270.75;;;8.37;66.12
26657;BME280;14279;50.010;8.260;2023-04-09T04:23:23;101275.06;;;8.38;66.28
26657;BME280;14279;50.010;8.260;2023-04-09T04:25:48;101280.38;;;8.34;66.24
26657;BME280;14279;50.010;8.260;2023-04-09T04:28:14;101287.22;;;8.36;66.08
26657;BME280;14279;50.010;8.260;2023-04-09T04:30:42;101283.88;;;8.31;66.21
26657;BME280;14279;50.010;8.260;2023-04-09T04:33:07;101284.66;;;8.35;65.51
26657;BME280;14279;50.010;8.260;2023-04-09T04:35:33;101287.19;;;8.38;65.83
26657;BME280;14279;50.010;8.260;2023-04-09T04:37:58;101284.66;;;8.35;65.78
26657;BME280;14279;50.010;8.260;2023-04-09T04:40:23;101289.00;;;8.34;66.02
26657;BME280;14279;50.010;8.260;2023-04-09T04:42:48;101287.31;;;8.32;65.87
26657;BME280;14279;50.010;8.260;2023-04-09T04:45:14;101288.31;;;8.26;66.11
26657;BME280;14279;50.010;8.260;2023-04-09T04:47:39;101287.38;;;8.30;65.77
26657;BME280;14279;50.010;8.260;2023-04-09T04:50:05;101287.25;;;8.35;65.70
26657;BME280;14279;50.010;8.260;2023-04-09T04:52:30;101286.63;;;8.25;65.92
26657;BME280;14279;50.010;8.260;2023-04-09T04:54:56;101290.88;;;8.27;66.35
26657;BME280;14279;50.010;8.260;2023-04-09T04:57:21;101288.22;;;8.31;65.51
26657;BME280;14279;50.010;8.260;2023-04-09T04:59:46;101290.88;;;8.27;65.97
26657;BME280;14279;50.010;8.260;2023-04-09T05:02:11;101290.16;;;8.19;66.44
26657;BME280;14279;50.010;8.260;2023-04-09T05:04:37;101291.25;;;8.09;65.66
26657;BME280;14279;50.010;8.260;2023-04-09T05:07:02;101298.53;;;7.91;66.24
26657;BME280;14279;50.010;8.260;2023-04-09T05:09:27;101301.13;;;7.91;66.31
26657;BME280;14279;50.010;8.260;2023-04-09T05:11:52;101294.97;;;7.97;66.91
26657;BME280;14279;50.010;8.260;2023-04-09T05:14:17;101301.13;;;7.91;66.38
26657;BME280;14279;50.010;8.260;2023-04-09T05:16:45;101300.31;;;7.88;66.43
26657;BME280;14279;50.010;8.260;2023-04-09T05:19:10;101297.72;;;7.88;66.98
26657;BME280;14279;50.010;8.260;2023-04-09T05:21:35;101292.47;;;7.92;66.41
26657;BME280;14279;50.010;8.260;2023-04-09T05:24:01;101300.16;;;7.97;67.05
26657;BME280;14279;50.010;8.260;2023-04-09T05:26:26;101298.38;;;7.99;66.80
26657;BME280;14279;50.010;8.260;2023-04-09T05:28:51;101295.78;;;7.99;67.29
26657;BME280;14279;50.010;8.260;2023-04-09T05:31:17;101299.88;;;8.09;67.28
26657;BME280;14279;50.010;8.260;2023-04-09T05:33:42;101299.88;;;8.11;67.21
26657;BME280;14279;50.010;8.260;2023-04-09T05:36:07;101297.06;;;8.22;67.40
26657;BME280;14279;50.010;8.260;2023-04-09T05:38:33;101298.66;;;8.27;66.64
26657;BME280;14279;50.010;8.260;2023-04-09T05:40:59;101305.44;;;8.35;66.88
26657;BME280;14279;50.010;8.260;2023-04-09T05:43:24;101303.66;;;8.37;67.05
26657;BME280;14279;50.010;8.260;2023-04-09T05:45:51;101299.91;;;8.52;67.31
26657;BME280;14279;50.010;8.260;2023-04-09T05:48:16;101290.94;;;8.65;66.78
26657;BME280;14279;50.010;8.260;2023-04-09T05:50:48;101301.25;;;8.68;66.31
26657;BME280;14279;50.010;8.260;2023-04-09T05:53:13;101299.78;;;8.56;66.46
26657;BME280;14279;50.010;8.260;2023-04-09T05:55:38;101304.88;;;8.61;66.08
26657;BME280;14279;50.010;8.260;2023-04-09T05:58:04;101311.56;;;8.71;65.65
26657;BME280;14279;50.010;8.260;2023-04-09T06:00:29;101309.84;;;8.70;64.87
26657;BME280;14279;50.010;8.260;2023-04-09T06:02:54;101314.19;;;8.70;64.83
26657;BME280;14279;50.010;8.260;2023-04-09T06:05:19;101309.06;;;8.67;64.71
26657;BME280;14279;50.010;8.260;2023-04-09T06:07:45;101306.69;;;8.56;64.46
26657;BME280;14279;50.010;8.260;2023-04-09T06:10:10;101305.81;;;8.59;64.41
26657;BME280;14279;50.010;8.260;2023-04-09T06:12:35;101317.09;;;8.56;64.81
26657;BME280;14279;50.010;8.260;2023-04-09T06:15:01;101317.28;;;8.47;64.77
26657;BME280;14279;50.010;8.260;2023-04-09T06:17:27;101311.31;;;8.41;65.25
26657;BME280;14279;50.010;8.260;2023-04-09T06:19:53;101314.19;;;8.70;64.97
26657;BME280;14279;50.010;8.260;2023-04-09T06:22:18;101312.66;;;8.61;65.13
26657;BME280;14279;50.010;8.260;2023-04-09T06:24:43;101321.75;;;8.40;65.34
26657;BME280;14279;50.010;8.260;2023-04-09T06:27:16;101316.19;;;8.57;65.10
26657;BME280;14279;50.010;8.260;2023-04-09T06:30:18;101318.34;;;8.77;65.03
26657;BME280;14279;50.010;8.260;2023-04-09T06:32:45;101315.47;;;8.90;64.43
26657;BME280;14279;50.010;8.260;2023-04-09T06:35:11;101319.34;;;9.08;64.07
26657;BME280;14279;50.010;8.260;2023-04-09T06:37:37;101320.91;;;9.15;63.82
26657;BME280;14279;50.010;8.260;2023-04-09T06:40:07;101324.19;;;9.23;63.85
26657;BME280;14279;50.010;8.260;2023-04-09T06:42:35;101313.19;;;9.13;63.70
26657;BME280;14279;50.010;8.260;2023-04-09T06:45:05;101331.03;;;9.26;63.64
26657;BME280;14279;50.010;8.260;2023-04-09T06:47:37;101327.81;;;9.16;64.22
26657;BME280;14279;50.010;8.260;2023-04-09T06:50:03;101329.03;;;9.02;65.12
26657;BME280;14279;50.010;8.260;2023-04-09T06:52:34;101332.97;;;9.17;64.99
26657;BME280;14279;50.010;8.260;2023-04-09T06:55:08;101330.56;;;9.44;64.15
26657;BME280;14279;50.010;8.260;2023-04-09T06:57:34;101326.25;;;9.43;64.51
26657;BME280;14279;50.010;8.260;2023-04-09T07:00:01;101322.66;;;9.49;64.47
26657;BME280;14279;50.010;8.260;2023-04-09T07:02:27;101323.06;;;9.67;64.29
26657;BME280;14279;50.010;8.260;2023-04-09T07:04:55;101323.16;;;9.63;64.40
26657;BME280;14279;50.010;8.260;2023-04-09T07:07:30;101323.09;;;9.65;64.13
26657;BME280;14279;50.010;8.260;2023-04-09T07:09:56;101321.44;;;9.94;63.68
26657;BME280;14279;50.010;8.260;2023-04-09T07:12:30;101315.91;;;10.06;63.16
26657;BME280;14279;50.010;8.260;2023-04-09T07:15:01;101325.13;;;10.17;63.10
26657;BME280;14279;50.010;8.260;2023-04-09T07:17:51;101324.41;;;10.12;63.18
26657;BME280;14279;50.010;8.260;2023-04-09T07:20:57;101322.22;;;10.28;63.29
26657;BME280;14279;50.010;8.260;2023-04-09T07:23:22;101324.72;;;10.31;62.78
26657;BME280;14279;50.010;8.260;2023-04-09T07:25:51;101326.25;;;10.38;62.92
26657;BME280;14279;50.010;8.260;2023-04-09T07:28:16;101324.34;;;10.45;62.45
26657;BME280;14279;50.010;8.260;2023-04-09T07:30:41;101317.56;;;10.09;63.54
26657;BME280;14279;50.010;8.260;2023-04-09T07:33:15;101321.41;;;10.26;62.75
26657;BME280;14279;50.010;8.260;2023-04-09T07:36:06;101324.13;;;10.22;63.13
26657;BME280;14279;50.010;8.260;2023-04-09T07:39:15;101326.28;;;10.66;61.58
26657;BME280;14279;50.010;8.260;2023-04-09T07:41:46;101331.16;;;10.77;61.70
26657;BME280;14279;50.010;8.260;2023-04-09T07:44:12;101323.72;;;10.93;61.30
26657;BME280;14279;50.010;8.260;2023-04-09T07:46:37;101331.59;;;10.92;60.98
26657;BME280;14279;50.010;8.260;2023-04-09T07:49:03;101334.47;;;10.82;61.47
26657;BME280;14279;50.010;8.260;2023-04-09T07:51:28;101326.44;;;10.62;61.82
26657;BME280;14279;50.010;8.260;2023-04-09T07:53:55;101326.22;;;10.41;62.16
26657;BME280;14279;50.010;8.260;2023-04-09T07:56:20;101332.22;;;10.43;62.33
26657;BME280;14279;50.010;8.260;2023-04-09T07:58:51;101331.72;;;10.29;62.86
26657;BME280;14279;50.010;8.260;2023-04-09T08:01:20;101335.13;;;10.31;62.93
26657;BME280;14279;50.010;8.260;2023-04-09T08:03:48;101333.22;;;10.67;61.85
26657;BME280;14279;50.010;8.260;2023-04-09T08:06:14;101332.69;;;10.26;62.80
26657;BME280;14279;50.010;8.260;2023-04-09T08:08:45;101337.47;;;10.10;63.13
26657;BME280;14279;50.010;8.260;2023-04-09T08:11:35;101330.75;;;10.33;62.29
26657;BME280;14279;50.010;8.260;2023-04-09T08:14:14;101335.78;;;10.69;61.90
26657;BME280;14279;50.010;8.260;2023-04-09T08:16:48;101328.56;;;11.06;60.66
26657;BME280;14279;50.010;8.260;2023-04-09T08:19:15;101330.56;;;10.96;61.39
26657;BME280;14279;50.010;8.260;2023-04-09T08:21:44;101332.38;;;11.21;60.38
26657;BME280;14279;50.010;8.260;2023-04-09T08:24:13;101333.53;;;11.39;60.45
26657;BME280;14279;50.010;8.260;2023-04-09T08:26:44;101328.88;;;11.22;61.24
26657;BME280;14279;50.010;8.260;2023-04-09T08:29:14;101335.16;;;11.16;61.21
26657;BME280;14279;50.010;8.260;2023-04-09T08:31:39;101344.50;;;11.22;60.53
26657;BME280;14279;50.010;8.260;2023-04-09T08:34:05;101352.03;;;11.04;60.75
26657;BME280;14279;50.010;8.260;2023-04-09T08:36:30;101349.06;;;11.42;60.13
26657;BME280;14279;50.010;8.260;2023-04-09T08:38:56;101353.53;;;11.64;59.70
26657;BME280;14279;50.010;8.260;2023-04-09T08:41:24;101360.19;;;11.47;60.17
26657;BME280;14279;50.010;8.260;2023-04-09T08:43:51;101357.81;;;11.66;59.70
26657;BME280;14279;50.010;8.260;2023-04-09T08:46:20;101361.78;;;11.77;59.14
26657;BME280;14279;50.010;8.260;2023-04-09T08:48:47;101358.06;;;11.84;59.05
26657;BME280;14279;50.010;8.260;2023-04-09T08:51:13;101357.44;;;12.02;58.50
26657;BME280;14279;50.010;8.260;2023-04-09T08:53:45;101358.22;;;12.05;58.49
26657;BME280;14279;50.010;8.260;2023-04-09T08:56:12;101349.84;;;11.95;58.91
26657;BME280;14279;50.010;8.260;2023-04-09T08:58:41;101352.94;;;11.81;59.29
26657;BME280;14279;50.010;8.260;2023-04-09T09:01:27;101349.13;;;11.91;58.70
26657;BME280;14279;50.010;8.260;2023-04-09T09:06:26;101360.28;;;11.95;58.85
26657;BME280;14279;50.010;8.260;2023-04-09T09:09:12;101359.94;;;12.06;59.41
26657;BME280;14279;50.010;8.260;2023-04-09T09:11:40;63177.94;;;-147.79;100.00
26657;BME280;14279;50.010;8.260;2023-04-09T09:14:13;63177.94;;;-147.79;100.00
26657;BME280;14279;50.010;8.260;2023-04-09T09:16:40;63177.94;;;-147.79;100.00
26657;BME280;14279;50.010;8.260;2023-04-09T09:22:02;63177.94;;;-147.79;100.00
26657;BME280;14279;50.010;8.260;2023-04-09T09:24:29;63177.94;;;-147.79;100.00
26657;BME280;14279;50.010;8.260;2023-04-09T09:26:54;63177.94;;;-147.79;100.00
26657;BME280;14279;50.010;8.260;2023-04-09T09:29:21;63177.94;;;-147.79;100.00
26657;BME280;14279;50.010;8.260;2023-04-09T09:31:51;63177.94;;;-147.79;100.00
26657;BME280;14279;50.010;8.260;2023-04-09T09:34:18;63177.94;;;-147.79;100.00
26657;BME280;14279;50.010;8.260;2023-04-09T09:36:44;63177.94;;;-147.79;100.00
26657;BME280;14279;50.010;8.260;2023-04-09T09:39:10;63177.94;;;-147.79;100.00
26657;BME280;14279;50.010;8.260;2023-04-09T09:41:38;63177.94;;;-147.79;100.00
26657;BME280;14279;50.010;8.260;2023-04-09T09:44:03;63177.94;;;-147.79;100.00
26657;BME280;14279;50.010;8.260;2023-04-09T09:46:34;63177.94;;;-147.79;100.00
26657;BME280;14279;50.010;8.260;2023-04-09T09:49:00;63177.94;;;-147.79;100.00
26657;BME280;14279;50.010;8.260;2023-04-09T09:51:25;63177.94;;;-147.79;100.00
26657;BME280;14279;50.010;8.260;2023-04-09T09:53:55;63177.94;;;-147.79;100.00
26657;BME280;14279;50.010;8.260;2023-04-09T09:56:35;63177.94;;;-147.79;100.00
26657;BME280;14279;50.010;8.260;2023-04-09T09:59:20;63177.94;;;-147.79;100.00
26657;BME280;14279;50.010;8.260;2023-04-09T10:01:47;63177.94;;;-147.79;100.00
26657;BME280;14279;50.010;8.260;2023-04-09T10:04:15;63177.94;;;-147.79;100.00
26657;BME280;14279;50.010;8.260;2023-04-09T10:06:42;63177.94;;;-147.79;100.00
26657;BME280;14279;50.010;8.260;2023-04-09T10:09:08;63177.94;;;-147.79;100.00
26657;BME280;14279;50.010;8.260;2023-04-09T10:11:35;63177.94;;;-147.79;100.00
26657;BME280;14279;50.010;8.260;2023-04-09T10:14:01;63177.94;;;-147.79;100.00
26657;BME280;14279;50.010;8.260;2023-04-09T10:16:27;63177.94;;;-147.79;100.00
26657;BME280;14279;50.010;8.260;2023-04-09T10:18:54;63177.94;;;-147.79;100.00
26657;BME280;14279;50.010;8.260;2023-04-09T10:23:52;63177.94;;;-147.79;100.00
26657;BME280;14279;50.010;8.260;2023-04-09T10:26:18;63177.94;;;-147.79;100.00
26657;BME280;14279;50.010;8.260;2023-04-09T10:28:43;63177.94;;;-147.79;100.00
26657;BME280;14279;50.010;8.260;2023-04-09T10:31:09;63177.94;;;-147.79;100.00
26657;BME280;14279;50.010;8.260;2023-04-09T10:33:37;63177.94;;;-147.79;100.00
26657;BME280;14279;50.010;8.260;2023-04-09T10:36:05;63177.94;;;-147.79;100.00
26657;BME280;14279;50.010;8.260;2023-04-09T10:41:16;63177.94;;;-147.79;100.00
26657;BME280;14279;50.010;8.260;2023-04-09T10:43:46;63177.94;;;-147.79;100.00
26657;BME280;14279;50.010;8.260;2023-04-09T10:46:28;63177.94;;;-147.79;100.00
26657;BME280;14279;50.010;8.260;2023-04-09T10:49:11;63177.94;;;-147.79;100.00
26657;BME280;14279;50.010;8.260;2023-04-09T10:51:39;63177.94;;;-147.79;100.00
26657;BME280;14279;50.010;8.260;2023-04-09T10:59:37;63177.94;;;-147.79;100.00
26657;BME280;14279;50.010;8.260;2023-04-09T11:02:06;63177.94;;;-147.79;100.00
26657;BME280;14279;50.010;8.260;2023-04-09T11:05:04;63177.94;;;-147.79;100.00
26657;BME280;14279;50.010;8.260;2023-04-09T11:07:32;63177.94;;;-147.79;100.00
26657;BME280;14279;50.010;8.260;2023-04-09T11:09:59;63177.94;;;-147.79;100.00
26657;BME280;14279;50.010;8.260;2023-04-09T11:12:24;63177.94;;;-147.79;100.00
26657;BME280;14279;50.010;8.260;2023-04-09T11:14:49;63177.94;;;-147.79;100.00
26657;BME280;14279;50.010;8.260;2023-04-09T11:17:15;101293.47;;;14.98;40.98
26657;BME280;14279;50.010;8.260;2023-04-09T11:19:43;101285.75;;;15.30;40.48
26657;BME280;14279;50.010;8.260;2023-04-09T11:22:35;101281.69;;;15.24;40.18
26657;BME280;14279;50.010;8.260;2023-04-09T11:25:04;101287.31;;;15.16;39.67
26657;BME280;14279;50.010;8.260;2023-04-09T11:27:43;101277.50;;;15.20;38.66
26657;BME280;14279;50.010;8.260;2023-04-09T11:30:09;101266.72;;;15.26;39.27
26657;BME280;14279;50.010;8.260;2023-04-09T11:32:34;101274.56;;;15.44;38.50
26657;BME280;14279;50.010;8.260;2023-04-09T11:34:59;101275.75;;;15.54;36.12
26657;BME280;14279;50.010;8.260;2023-04-09T11:37:25;101277.63;;;15.52;36.97
26657;BME280;14279;50.010;8.260;2023-04-09T11:39:52;101276.41;;;15.07;37.55
26657;BME280;14279;50.010;8.260;2023-04-09T11:42:20;101280.38;;;15.15;37.24
26657;BME280;14279;50.010;8.260;2023-04-09T11:44:46;101279.94;;;15.74;36.71
26657;BME280;14279;50.010;8.260;2023-04-09T11:47:13;101276.13;;;15.64;36.52
26657;BME280;14279;50.010;8.260;2023-04-09T11:49:47;101276.50;;;15.40;36.78
26657;BME280;14279;50.010;8.260;2023-04-09T11:52:34;101279.91;;;15.58;36.42
26657;BME280;14279;50.010;8.260;2023-04-09T11:55:07;101283.44;;;15.75;36.80
26657;BME280;14279;50.010;8.260;2023-04-09T11:57:45;101275.22;;;15.81;36.72
26657;BME280;14279;50.010;8.260;2023-04-09T12:00:15;101276.66;;;16.36;36.33
26657;BME280;14279;50.010;8.260;2023-04-09T12:02:46;101272.44;;;15.84;38.09
26657;BME280;14279;50.010;8.260;2023-04-09T12:05:23;101275.44;;;15.60;38.91
26657;BME280;14279;50.010;8.260;2023-04-09T12:07:50;101267.59;;;16.73;36.83
26657;BME280;14279;50.010;8.260;2023-04-09T12:10:15;101268.34;;;16.75;37.02
26657;BME280;14279;50.010;8.260;2023-04-09T12:12:45;101273.66;;;15.95;37.17
26657;BME280;14279;50.010;8.260;2023-04-09T12:15:18;101274.66;;;15.58;38.54
26657;BME280;14279;50.010;8.260;2023-04-09T12:21:06;101273.91;;;16.06;38.26
26657;BME280;14279;50.010;8.260;2023-04-09T12:23:31;101268.50;;;16.25;38.09
26657;BME280;14279;50.010;8.260;2023-04-09T12:25:57;101271.56;;;16.17;37.56
26657;BME280;14279;50.010;8.260;2023-04-09T12:28:26;101256.91;;;16.13;37.52
26657;BME280;14279;50.010;8.260;2023-04-09T12:34:10;101269.09;;;15.98;37.22
26657;BME280;14279;50.010;8.260;2023-04-09T12:40:01;101255.53;;;15.90;37.53
26657;BME280;14279;50.010;8.260;2023-04-09T12:42:27;101251.03;;;16.08;38.26
26657;BME280;14279;50.010;8.260;2023-04-09T12:44:53;101245.75;;;16.56;37.26
26657;BME280;14279;50.010;8.260;2023-04-09T12:47:18;101253.34;;;16.14;37.67
26657;BME280;14279;50.010;8.260;2023-04-09T12:53:15;101233.31;;;16.28;37.58
26657;BME280;14279;50.010;8.260;2023-04-09T12:55:41;101236.78;;;16.75;36.99
26657;BME280;14279;50.010;8.260;2023-04-09T12:58:24;101232.72;;;16.85;36.43
26657;BME280;14279;50.010;8.260;2023-04-09T13:00:50;101236.53;;;16.49;37.31
26657;BME280;14279;50.010;8.260;2023-04-09T13:03:16;101243.16;;;16.08;38.37
26657;BME280;14279;50.010;8.260;2023-04-09T13:05:45;101233.59;;;16.23;38.60
26657;BME280;14279;50.010;8.260;2023-04-09T13:30:20;101231.25;;;16.95;36.01
26657;BME280;14279;50.010;8.260;2023-04-09T13:32:56;101233.03;;;15.84;37.34
26657;BME280;14279;50.010;8.260;2023-04-09T13:39:27;101216.75;;;16.58;37.29
26657;BME280;14279;50.010;8.260;2023-04-09T13:45:14;101210.97;;;16.97;35.08
26657;BME280;14279;50.010;8.260;2023-04-09T13:47:40;101208.22;;;16.99;35.07
26657;BME280;14279;50.010;8.260;2023-04-09T13:50:07;101203.47;;;17.06;35.03
26657;BME280;14279;50.010;8.260;2023-04-09T13:52:34;101197.66;;;16.70;35.76
26657;BME280;14279;50.010;8.260;2023-04-09T13:54:59;101198.22;;;16.45;36.05
26657;BME280;14279;50.010;8.260;2023-04-09T13:57:25;101190.28;;;16.30;36.20
26657;BME280;14279;50.010;8.260;2023-04-09T13:59:51;101186.16;;;16.41;36.23